sensor_id;sensor_type;location;lat;lon;timestamp;P1;durP1;ratioP1;P2;durP2;ratioP2
17858;SDS011;35426;30.698;104.050;2022-10-23T00:01:58;131.13;;;72.77;;
17858;SDS011;35426;30.698;104.050;2022-10-23T00:04:33;132.37;;;73.00;;
17858;SDS011;35426;30.698;104.050;2022-10-23T00:07:07;144.43;;;75.20;;
17858;SDS011;35426;30.698;104.050;2022-10-23T00:09:40;141.27;;;75.67;;
17858;SDS011;35426;30.698;104.050;2022-10-23T00:12:14;139.20;;;74.77;;
17858;SDS011;35426;30.698;104.050;2022-10-23T00:14:50;131.73;;;72.90;;
17858;SDS011;35426;30.698;104.050;2022-10-23T00:17:24;141.80;;;72.57;;
17858;SDS011;35426;30.698;104.050;2022-10-23T00:20:00;136.13;;;74.03;;
17858;SDS011;35426;30.698;104.050;2022-10-23T00:22:35;127.43;;;71.73;;
17858;SDS011;35426;30.698;104.050;2022-10-23T00:25:12;135.17;;;71.87;;
17858;SDS011;35426;30.698;104.050;2022-10-23T00:27:47;147.90;;;75.23;;
17858;SDS011;35426;30.698;104.050;2022-10-23T00:30:23;147.13;;;74.27;;
17858;SDS011;35426;30.698;104.050;2022-10-23T00:32:56;134.00;;;77.47;;
17858;SDS011;35426;30.698;104.050;2022-10-23T00:35:30;142.50;;;75.80;;
17858;SDS011;35426;30.698;104.050;2022-10-23T00:38:04;143.93;;;75.77;;
17858;SDS011;35426;30.698;104.050;2022-10-23T00:40:38;137.27;;;75.50;;
17858;SDS011;35426;30.698;104.050;2022-10-23T00:43:16;137.63;;;75.30;;
17858;SDS011;35426;30.698;104.050;2022-10-23T00:45:53;132.50;;;74.97;;
17858;SDS011;35426;30.698;104.050;2022-10-23T00:48:31;143.53;;;77.53;;
17858;SDS011;35426;30.698;104.050;2022-10-23T00:51:05;143.73;;;75.60;;
17858;SDS011;35426;30.698;104.050;2022-10-23T00:53:39;160.03;;;84.33;;
17858;SDS011;35426;30.698;104.050;2022-10-23T00:56:23;148.67;;;78.20;;
17858;SDS011;35426;30.698;104.050;2022-10-23T00:58:58;143.63;;;79.43;;
17858;SDS011;35426;30.698;104.050;2022-10-23T01:01:35;135.30;;;75.40;;
17858;SDS011;35426;30.698;104.050;2022-10-23T01:04:10;142.53;;;78.43;;
17858;SDS011;35426;30.698;104.050;2022-10-23T01:06:47;142.03;;;81.13;;
17858;SDS011;35426;30.698;104.050;2022-10-23T01:09:32;141.43;;;79.83;;
17858;SDS011;35426;30.698;104.050;2022-10-23T01:12:13;133.20;;;77.43;;
17858;SDS011;35426;30.698;104.050;2022-10-23T01:14:57;155.43;;;82.87;;
17858;SDS011;35426;30.698;104.050;2022-10-23T01:17:41;147.23;;;83.10;;
17858;SDS011;35426;30.698;104.050;2022-10-23T01:20:23;156.30;;;84.20;;
17858;SDS011;35426;30.698;104.050;2022-10-23T01:23:23;154.93;;;84.83;;
17858;SDS011;35426;30.698;104.050;2022-10-23T01:26:32;146.37;;;83.13;;
17858;SDS011;35426;30.698;104.050;2022-10-23T01:29:18;141.20;;;78.23;;
17858;SDS011;35426;30.698;104.050;2022-10-23T01:31:57;149.00;;;81.97;;
17858;SDS011;35426;30.698;104.050;2022-10-23T01:34:36;149.90;;;84.07;;
17858;SDS011;35426;30.698;104.050;2022-10-23T01:37:18;149.47;;;88.43;;
17858;SDS011;35426;30.698;104.050;2022-10-23T01:40:02;149.93;;;84.13;;
17858;SDS011;35426;30.698;104.050;2022-10-23T01:42:43;148.17;;;82.50;;
17858;SDS011;35426;30.698;104.050;2022-10-23T01:45:29;147.90;;;83.80;;
17858;SDS011;35426;30.698;104.050;2022-10-23T01:48:12;158.00;;;86.17;;
17858;SDS011;35426;30.698;104.050;2022-10-23T01:50:50;156.80;;;85.67;;
17858;SDS011;35426;30.698;104.050;2022-10-23T01:53:26;148.00;;;85.50;;
17858;SDS011;35426;30.698;104.050;2022-10-23T01:56:08;154.80;;;85.30;;
17858;SDS011;35426;30.698;104.050;2022-10-23T01:58:44;158.43;;;85.83;;
17858;SDS011;35426;30.698;104.050;2022-10-23T02:01:26;147.20;;;86.30;;
17858;SDS011;35426;30.698;104.050;2022-10-23T02:04:04;157.53;;;90.13;;
17858;SDS011;35426;30.698;104.050;2022-10-23T02:06:42;146.90;;;87.27;;
17858;SDS011;35426;30.698;104.050;2022-10-23T02:09:20;156.30;;;88.20;;
17858;SDS011;35426;30.698;104.050;2022-10-23T02:11:57;150.80;;;86.57;;
17858;SDS011;35426;30.698;104.050;2022-10-23T02:14:42;156.13;;;90.03;;
17858;SDS011;35426;30.698;104.050;2022-10-23T02:17:29;162.17;;;93.50;;
17858;SDS011;35426;30.698;104.050;2022-10-23T02:20:16;153.50;;;90.20;;
17858;SDS011;35426;30.698;104.050;2022-10-23T02:22:56;150.37;;;86.77;;
17858;SDS011;35426;30.698;104.050;2022-10-23T02:25:34;157.90;;;86.87;;
17858;SDS011;35426;30.698;104.050;2022-10-23T02:28:14;162.10;;;92.13;;
17858;SDS011;35426;30.698;104.050;2022-10-23T02:30:56;162.67;;;91.73;;
17858;SDS011;35426;30.698;104.050;2022-10-23T02:33:36;156.18;;;93.95;;
17858;SDS011;35426;30.698;104.050;2022-10-23T02:36:10;157.30;;;89.32;;
17858;SDS011;35426;30.698;104.050;2022-10-23T02:38:45;155.25;;;85.63;;
17858;SDS011;35426;30.698;104.050;2022-10-23T02:41:25;148.57;;;88.45;;
17858;SDS011;35426;30.698;104.050;2022-10-23T02:44:21;158.73;;;89.50;;
17858;SDS011;35426;30.698;104.050;2022-10-23T02:47:15;160.80;;;89.88;;
17858;SDS011;35426;30.698;104.050;2022-10-23T02:50:02;160.50;;;87.78;;
17858;SDS011;35426;30.698;104.050;2022-10-23T02:52:47;156.63;;;87.97;;
17858;SDS011;35426;30.698;104.050;2022-10-23T02:55:33;140.68;;;86.15;;
17858;SDS011;35426;30.698;104.050;2022-10-23T02:58:19;158.52;;;88.95;;
17858;SDS011;35426;30.698;104.050;2022-10-23T03:01:01;148.23;;;85.57;;
17858;SDS011;35426;30.698;104.050;2022-10-23T03:03:41;153.25;;;90.28;;
17858;SDS011;35426;30.698;104.050;2022-10-23T03:06:23;140.57;;;87.70;;
17858;SDS011;35426;30.698;104.050;2022-10-23T03:08:58;150.27;;;87.32;;
17858;SDS011;35426;30.698;104.050;2022-10-23T03:11:38;151.55;;;90.00;;
17858;SDS011;35426;30.698;104.050;2022-10-23T03:14:15;149.25;;;90.05;;
17858;SDS011;35426;30.698;104.050;2022-10-23T03:16:53;148.95;;;88.57;;
17858;SDS011;35426;30.698;104.050;2022-10-23T03:19:33;140.07;;;86.45;;
17858;SDS011;35426;30.698;104.050;2022-10-23T03:22:10;153.60;;;87.20;;
17858;SDS011;35426;30.698;104.050;2022-10-23T03:24:50;149.43;;;87.57;;
17858;SDS011;35426;30.698;104.050;2022-10-23T03:27:25;143.00;;;82.40;;
17858;SDS011;35426;30.698;104.050;2022-10-23T03:30:04;140.20;;;85.50;;
17858;SDS011;35426;30.698;104.050;2022-10-23T03:32:40;141.02;;;81.90;;
17858;SDS011;35426;30.698;104.050;2022-10-23T03:35:15;134.07;;;79.70;;
17858;SDS011;35426;30.698;104.050;2022-10-23T03:37:52;128.00;;;76.38;;
17858;SDS011;35426;30.698;104.050;2022-10-23T03:40:27;135.10;;;81.35;;
17858;SDS011;35426;30.698;104.050;2022-10-23T03:43:05;139.93;;;83.80;;
17858;SDS011;35426;30.698;104.050;2022-10-23T03:45:41;134.30;;;82.57;;
17858;SDS011;35426;30.698;104.050;2022-10-23T03:48:22;143.52;;;85.00;;
17858;SDS011;35426;30.698;104.050;2022-10-23T03:51:01;149.20;;;86.57;;
17858;SDS011;35426;30.698;104.050;2022-10-23T03:53:42;136.57;;;82.38;;
17858;SDS011;35426;30.698;104.050;2022-10-23T03:56:18;142.85;;;85.97;;
17858;SDS011;35426;30.698;104.050;2022-10-23T03:59:02;133.82;;;83.97;;
17858;SDS011;35426;30.698;104.050;2022-10-23T04:01:39;136.82;;;81.72;;
17858;SDS011;35426;30.698;104.050;2022-10-23T04:04:16;138.70;;;84.00;;
17858;SDS011;35426;30.698;104.050;2022-10-23T04:06:56;131.77;;;80.60;;
17858;SDS011;35426;30.698;104.050;2022-10-23T04:09:38;113.07;;;65.65;;
17858;SDS011;35426;30.698;104.050;2022-10-23T04:12:16;111.85;;;68.03;;
17858;SDS011;35426;30.698;104.050;2022-10-23T04:14:54;112.93;;;70.28;;
17858;SDS011;35426;30.698;104.050;2022-10-23T04:17:28;111.78;;;66.53;;
17858;SDS011;35426;30.698;104.050;2022-10-23T04:20:09;126.55;;;74.25;;
17858;SDS011;35426;30.698;104.050;2022-10-23T04:22:43;126.60;;;76.28;;
17858;SDS011;35426;30.698;104.050;2022-10-23T04:25:20;135.45;;;74.95;;
17858;SDS011;35426;30.698;104.050;2022-10-23T04:27:59;131.93;;;78.28;;
17858;SDS011;35426;30.698;104.050;2022-10-23T04:30:37;133.52;;;79.32;;
17858;SDS011;35426;30.698;104.050;2022-10-23T04:33:13;119.50;;;73.07;;
17858;SDS011;35426;30.698;104.050;2022-10-23T04:35:51;116.72;;;69.95;;
17858;SDS011;35426;30.698;104.050;2022-10-23T04:38:28;118.43;;;68.25;;
17858;SDS011;35426;30.698;104.050;2022-10-23T04:41:08;108.80;;;65.25;;
17858;SDS011;35426;30.698;104.050;2022-10-23T04:43:42;111.70;;;64.60;;
17858;SDS011;35426;30.698;104.050;2022-10-23T04:46:17;113.25;;;67.25;;
17858;SDS011;35426;30.698;104.050;2022-10-23T04:48:52;112.00;;;69.50;;
17858;SDS011;35426;30.698;104.050;2022-10-23T04:51:45;116.85;;;64.68;;
17858;SDS011;35426;30.698;104.050;2022-10-23T04:54:42;101.82;;;61.42;;
17858;SDS011;35426;30.698;104.050;2022-10-23T04:57:28;102.68;;;57.30;;
17858;SDS011;35426;30.698;104.050;2022-10-23T05:00:10;100.72;;;62.35;;
17858;SDS011;35426;30.698;104.050;2022-10-23T05:02:54;99.93;;;59.17;;
17858;SDS011;35426;30.698;104.050;2022-10-23T05:05:34;100.78;;;63.08;;
17858;SDS011;35426;30.698;104.050;2022-10-23T05:08:29;105.20;;;64.85;;
17858;SDS011;35426;30.698;104.050;2022-10-23T05:11:18;108.95;;;63.33;;
17858;SDS011;35426;30.698;104.050;2022-10-23T05:13:56;106.47;;;65.25;;
17858;SDS011;35426;30.698;104.050;2022-10-23T05:16:33;103.00;;;64.68;;
17858;SDS011;35426;30.698;104.050;2022-10-23T05:19:12;102.75;;;64.95;;
17858;SDS011;35426;30.698;104.050;2022-10-23T05:21:58;110.07;;;64.53;;
17858;SDS011;35426;30.698;104.050;2022-10-23T05:24:48;99.50;;;61.80;;
17858;SDS011;35426;30.698;104.050;2022-10-23T05:28:33;103.80;;;63.13;;
17858;SDS011;35426;30.698;104.050;2022-10-23T05:31:26;96.30;;;57.45;;
17858;SDS011;35426;30.698;104.050;2022-10-23T05:34:08;80.60;;;52.33;;
17858;SDS011;35426;30.698;104.050;2022-10-23T05:36:44;91.80;;;56.40;;
17858;SDS011;35426;30.698;104.050;2022-10-23T05:39:22;89.57;;;53.42;;
17858;SDS011;35426;30.698;104.050;2022-10-23T05:41:59;79.45;;;52.08;;
17858;SDS011;35426;30.698;104.050;2022-10-23T05:44:35;84.70;;;54.38;;
17858;SDS011;35426;30.698;104.050;2022-10-23T05:47:42;83.13;;;51.28;;
17858;SDS011;35426;30.698;104.050;2022-10-23T05:50:43;79.95;;;51.97;;
17858;SDS011;35426;30.698;104.050;2022-10-23T05:53:30;90.80;;;55.17;;
17858;SDS011;35426;30.698;104.050;2022-10-23T05:56:25;91.90;;;56.80;;
17858;SDS011;35426;30.698;104.050;2022-10-23T05:59:19;89.15;;;54.65;;
17858;SDS011;35426;30.698;104.050;2022-10-23T06:02:12;85.63;;;56.35;;
17858;SDS011;35426;30.698;104.050;2022-10-23T06:05:05;103.25;;;65.00;;
17858;SDS011;35426;30.698;104.050;2022-10-23T06:08:06;94.43;;;60.08;;
17858;SDS011;35426;30.698;104.050;2022-10-23T06:10:42;91.75;;;60.00;;
17858;SDS011;35426;30.698;104.050;2022-10-23T06:13:18;103.97;;;62.28;;
17858;SDS011;35426;30.698;104.050;2022-10-23T06:15:54;101.72;;;62.22;;
17858;SDS011;35426;30.698;104.050;2022-10-23T06:18:30;97.38;;;60.97;;
17858;SDS011;35426;30.698;104.050;2022-10-23T06:21:13;101.53;;;60.78;;
17858;SDS011;35426;30.698;104.050;2022-10-23T06:23:53;95.37;;;60.17;;
17858;SDS011;35426;30.698;104.050;2022-10-23T06:26:58;100.38;;;61.33;;
17858;SDS011;35426;30.698;104.050;2022-10-23T06:29:39;93.03;;;59.38;;
17858;SDS011;35426;30.698;104.050;2022-10-23T06:32:16;93.60;;;57.63;;
17858;SDS011;35426;30.698;104.050;2022-10-23T06:35:09;92.10;;;59.85;;
17858;SDS011;35426;30.698;104.050;2022-10-23T06:37:46;91.73;;;60.03;;
17858;SDS011;35426;30.698;104.050;2022-10-23T06:40:33;96.18;;;63.53;;
17858;SDS011;35426;30.698;104.050;2022-10-23T06:43:22;99.43;;;61.73;;
17858;SDS011;35426;30.698;104.050;2022-10-23T06:46:14;90.38;;;57.63;;
17858;SDS011;35426;30.698;104.050;2022-10-23T06:49:13;95.93;;;60.13;;
17858;SDS011;35426;30.698;104.050;2022-10-23T06:51:49;95.82;;;62.13;;
17858;SDS011;35426;30.698;104.050;2022-10-23T06:54:26;102.87;;;63.87;;
17858;SDS011;35426;30.698;104.050;2022-10-23T06:57:08;100.80;;;64.90;;
17858;SDS011;35426;30.698;104.050;2022-10-23T06:59:45;90.87;;;58.63;;
17858;SDS011;35426;30.698;104.050;2022-10-23T07:02:22;97.00;;;62.60;;
17858;SDS011;35426;30.698;104.050;2022-10-23T07:04:59;94.00;;;62.23;;
17858;SDS011;35426;30.698;104.050;2022-10-23T07:07:40;101.83;;;60.30;;
17858;SDS011;35426;30.698;104.050;2022-10-23T07:10:22;93.67;;;60.57;;
17858;SDS011;35426;30.698;104.050;2022-10-23T07:13:01;99.35;;;61.75;;
17858;SDS011;35426;30.698;104.050;2022-10-23T07:15:39;102.30;;;62.63;;
17858;SDS011;35426;30.698;104.050;2022-10-23T07:18:18;100.70;;;61.55;;
17858;SDS011;35426;30.698;104.050;2022-10-23T07:21:18;105.07;;;62.40;;
17858;SDS011;35426;30.698;104.050;2022-10-23T07:23:54;97.77;;;61.17;;
17858;SDS011;35426;30.698;104.050;2022-10-23T07:26:39;94.97;;;61.20;;
17858;SDS011;35426;30.698;104.050;2022-10-23T07:29:16;103.40;;;64.27;;
17858;SDS011;35426;30.698;104.050;2022-10-23T07:31:51;98.60;;;62.57;;
17858;SDS011;35426;30.698;104.050;2022-10-23T07:34:26;94.20;;;61.80;;
17858;SDS011;35426;30.698;104.050;2022-10-23T07:37:17;89.13;;;57.37;;
17858;SDS011;35426;30.698;104.050;2022-10-23T07:39:57;97.27;;;59.40;;
17858;SDS011;35426;30.698;104.050;2022-10-23T07:42:39;103.23;;;63.90;;
17858;SDS011;35426;30.698;104.050;2022-10-23T07:45:15;96.17;;;58.87;;
17858;SDS011;35426;30.698;104.050;2022-10-23T07:47:51;101.53;;;62.43;;
17858;SDS011;35426;30.698;104.050;2022-10-23T07:50:38;93.37;;;61.63;;
17858;SDS011;35426;30.698;104.050;2022-10-23T07:53:14;92.20;;;60.47;;
17858;SDS011;35426;30.698;104.050;2022-10-23T07:56:11;97.37;;;57.00;;
17858;SDS011;35426;30.698;104.050;2022-10-23T07:59:12;91.50;;;56.63;;
17858;SDS011;35426;30.698;104.050;2022-10-23T08:01:51;94.73;;;56.00;;
17858;SDS011;35426;30.698;104.050;2022-10-23T08:04:33;86.80;;;53.23;;
17858;SDS011;35426;30.698;104.050;2022-10-23T08:07:21;91.57;;;53.77;;
17858;SDS011;35426;30.698;104.050;2022-10-23T08:09:57;86.20;;;52.53;;
17858;SDS011;35426;30.698;104.050;2022-10-23T08:12:34;81.17;;;52.33;;
17858;SDS011;35426;30.698;104.050;2022-10-23T08:15:15;88.43;;;50.67;;
17858;SDS011;35426;30.698;104.050;2022-10-23T08:17:55;78.33;;;48.37;;
17858;SDS011;35426;30.698;104.050;2022-10-23T08:20:43;79.23;;;48.83;;
17858;SDS011;35426;30.698;104.050;2022-10-23T08:23:20;82.53;;;49.00;;
17858;SDS011;35426;30.698;104.050;2022-10-23T08:25:58;85.83;;;46.90;;
17858;SDS011;35426;30.698;104.050;2022-10-23T08:28:34;68.43;;;45.40;;
17858;SDS011;35426;30.698;104.050;2022-10-23T08:31:17;67.23;;;39.83;;
17858;SDS011;35426;30.698;104.050;2022-10-23T08:34:11;59.60;;;36.93;;
17858;SDS011;35426;30.698;104.050;2022-10-23T08:36:49;60.13;;;37.00;;
17858;SDS011;35426;30.698;104.050;2022-10-23T08:39:24;61.00;;;36.43;;
17858;SDS011;35426;30.698;104.050;2022-10-23T08:42:19;62.60;;;37.30;;
17858;SDS011;35426;30.698;104.050;2022-10-23T08:45:04;57.73;;;38.53;;
17858;SDS011;35426;30.698;104.050;2022-10-23T08:47:55;61.83;;;39.20;;
17858;SDS011;35426;30.698;104.050;2022-10-23T08:51:13;57.77;;;33.83;;
17858;SDS011;35426;30.698;104.050;2022-10-23T08:53:56;56.50;;;34.97;;
17858;SDS011;35426;30.698;104.050;2022-10-23T08:56:40;59.33;;;35.40;;
17858;SDS011;35426;30.698;104.050;2022-10-23T08:59:20;63.43;;;35.07;;
17858;SDS011;35426;30.698;104.050;2022-10-23T09:02:02;54.70;;;34.60;;
17858;SDS011;35426;30.698;104.050;2022-10-23T09:04:46;51.37;;;34.23;;
17858;SDS011;35426;30.698;104.050;2022-10-23T09:07:24;58.43;;;34.80;;
17858;SDS011;35426;30.698;104.050;2022-10-23T09:10:15;55.63;;;35.93;;
17858;SDS011;35426;30.698;104.050;2022-10-23T09:13:11;62.33;;;35.73;;
17858;SDS011;35426;30.698;104.050;2022-10-23T09:16:10;53.70;;;35.90;;
17858;SDS011;35426;30.698;104.050;2022-10-23T09:18:53;61.47;;;36.63;;
17858;SDS011;35426;30.698;104.050;2022-10-23T09:21:38;55.73;;;34.33;;
17858;SDS011;35426;30.698;104.050;2022-10-23T09:24:14;55.50;;;35.37;;
17858;SDS011;35426;30.698;104.050;2022-10-23T09:26:50;56.87;;;35.37;;
17858;SDS011;35426;30.698;104.050;2022-10-23T09:29:26;59.97;;;35.40;;
17858;SDS011;35426;30.698;104.050;2022-10-23T09:32:04;53.50;;;36.47;;
17858;SDS011;35426;30.698;104.050;2022-10-23T09:34:49;59.77;;;35.53;;
17858;SDS011;35426;30.698;104.050;2022-10-23T09:37:31;56.33;;;34.63;;
17858;SDS011;35426;30.698;104.050;2022-10-23T09:40:14;62.23;;;37.10;;
17858;SDS011;35426;30.698;104.050;2022-10-23T09:42:54;60.60;;;34.97;;
17858;SDS011;35426;30.698;104.050;2022-10-23T09:45:31;60.10;;;36.57;;
17858;SDS011;35426;30.698;104.050;2022-10-23T09:48:12;60.03;;;37.07;;
17858;SDS011;35426;30.698;104.050;2022-10-23T09:50:50;59.53;;;36.93;;
17858;SDS011;35426;30.698;104.050;2022-10-23T09:53:36;59.70;;;36.83;;
17858;SDS011;35426;30.698;104.050;2022-10-23T09:56:22;54.77;;;36.10;;
17858;SDS011;35426;30.698;104.050;2022-10-23T09:58:58;62.33;;;37.37;;
17858;SDS011;35426;30.698;104.050;2022-10-23T10:01:44;57.70;;;37.87;;
17858;SDS011;35426;30.698;104.050;2022-10-23T10:04:45;58.67;;;37.33;;
17858;SDS011;35426;30.698;104.050;2022-10-23T10:07:20;63.60;;;37.20;;
17858;SDS011;35426;30.698;104.050;2022-10-23T10:10:05;58.63;;;37.23;;
17858;SDS011;35426;30.698;104.050;2022-10-23T10:12:46;65.70;;;38.37;;
17858;SDS011;35426;30.698;104.050;2022-10-23T10:15:27;62.57;;;37.63;;
17858;SDS011;35426;30.698;104.050;2022-10-23T10:18:08;65.10;;;37.63;;
17858;SDS011;35426;30.698;104.050;2022-10-23T10:20:52;58.17;;;38.00;;
17858;SDS011;35426;30.698;104.050;2022-10-23T10:23:36;61.83;;;37.97;;
17858;SDS011;35426;30.698;104.050;2022-10-23T10:26:24;58.70;;;38.13;;
17858;SDS011;35426;30.698;104.050;2022-10-23T10:29:10;68.93;;;38.70;;
17858;SDS011;35426;30.698;104.050;2022-10-23T10:32:01;63.13;;;39.40;;
17858;SDS011;35426;30.698;104.050;2022-10-23T10:34:44;63.53;;;38.83;;
17858;SDS011;35426;30.698;104.050;2022-10-23T10:37:24;66.13;;;40.40;;
17858;SDS011;35426;30.698;104.050;2022-10-23T10:40:17;67.00;;;41.10;;
17858;SDS011;35426;30.698;104.050;2022-10-23T10:43:08;69.70;;;41.27;;
17858;SDS011;35426;30.698;104.050;2022-10-23T10:45:51;66.47;;;40.87;;
17858;SDS011;35426;30.698;104.050;2022-10-23T10:48:40;69.93;;;42.03;;
17858;SDS011;35426;30.698;104.050;2022-10-23T10:51:36;72.90;;;43.50;;
17858;SDS011;35426;30.698;104.050;2022-10-23T10:54:24;78.40;;;43.37;;
17858;SDS011;35426;30.698;104.050;2022-10-23T10:57:15;70.03;;;43.43;;
17858;SDS011;35426;30.698;104.050;2022-10-23T11:03:32;80.83;;;47.00;;
17858;SDS011;35426;30.698;104.050;2022-10-23T11:06:12;69.43;;;45.17;;
17858;SDS011;35426;30.698;104.050;2022-10-23T11:08:53;75.43;;;45.93;;
17858;SDS011;35426;30.698;104.050;2022-10-23T11:11:54;82.10;;;46.70;;
17858;SDS011;35426;30.698;104.050;2022-10-23T11:14:33;79.43;;;48.10;;
17858;SDS011;35426;30.698;104.050;2022-10-23T11:17:13;89.37;;;51.70;;
17858;SDS011;35426;30.698;104.050;2022-10-23T11:19:54;77.73;;;50.73;;
17858;SDS011;35426;30.698;104.050;2022-10-23T11:22:35;90.57;;;51.70;;
17858;SDS011;35426;30.698;104.050;2022-10-23T11:25:24;91.17;;;52.90;;
17858;SDS011;35426;30.698;104.050;2022-10-23T11:28:20;88.80;;;53.03;;
17858;SDS011;35426;30.698;104.050;2022-10-23T11:31:13;93.17;;;55.10;;
17858;SDS011;35426;30.698;104.050;2022-10-23T11:34:16;97.77;;;57.07;;
17858;SDS011;35426;30.698;104.050;2022-10-23T11:37:17;97.43;;;58.17;;
17858;SDS011;35426;30.698;104.050;2022-10-23T11:40:00;104.67;;;60.60;;
17858;SDS011;35426;30.698;104.050;2022-10-23T11:43:00;106.47;;;61.47;;
17858;SDS011;35426;30.698;104.050;2022-10-23T11:45:42;99.47;;;60.40;;
17858;SDS011;35426;30.698;104.050;2022-10-23T11:48:19;100.50;;;61.77;;
17858;SDS011;35426;30.698;104.050;2022-10-23T11:54:18;135.60;;;81.00;;
17858;SDS011;35426;30.698;104.050;2022-10-23T11:57:04;121.33;;;77.97;;
17858;SDS011;35426;30.698;104.050;2022-10-23T11:59:52;126.63;;;84.27;;
17858;SDS011;35426;30.698;104.050;2022-10-23T12:02:29;134.10;;;83.40;;
17858;SDS011;35426;30.698;104.050;2022-10-23T12:05:07;120.33;;;76.70;;
17858;SDS011;35426;30.698;104.050;2022-10-23T12:08:00;134.10;;;82.10;;
17858;SDS011;35426;30.698;104.050;2022-10-23T12:10:42;109.10;;;69.13;;
17858;SDS011;35426;30.698;104.050;2022-10-23T12:13:28;105.87;;;70.73;;
17858;SDS011;35426;30.698;104.050;2022-10-23T12:16:16;125.23;;;76.83;;
17858;SDS011;35426;30.698;104.050;2022-10-23T12:18:51;120.00;;;79.47;;
17858;SDS011;35426;30.698;104.050;2022-10-23T12:21:33;135.67;;;87.37;;
17858;SDS011;35426;30.698;104.050;2022-10-23T12:24:16;143.63;;;90.40;;
17858;SDS011;35426;30.698;104.050;2022-10-23T12:27:29;145.90;;;91.03;;
17858;SDS011;35426;30.698;104.050;2022-10-23T12:30:19;138.23;;;88.40;;
17858;SDS011;35426;30.698;104.050;2022-10-23T12:33:01;132.77;;;88.47;;
17858;SDS011;35426;30.698;104.050;2022-10-23T12:35:47;135.40;;;83.77;;
17858;SDS011;35426;30.698;104.050;2022-10-23T12:38:42;130.80;;;85.90;;
17858;SDS011;35426;30.698;104.050;2022-10-23T12:41:23;132.97;;;85.73;;
17858;SDS011;35426;30.698;104.050;2022-10-23T12:44:02;122.40;;;78.00;;
17858;SDS011;35426;30.698;104.050;2022-10-23T12:46:41;124.53;;;79.40;;
17858;SDS011;35426;30.698;104.050;2022-10-23T12:49:24;131.63;;;79.73;;
17858;SDS011;35426;30.698;104.050;2022-10-23T12:52:03;140.60;;;86.40;;
17858;SDS011;35426;30.698;104.050;2022-10-23T12:54:50;141.80;;;87.53;;
17858;SDS011;35426;30.698;104.050;2022-10-23T12:57:41;134.47;;;86.30;;
17858;SDS011;35426;30.698;104.050;2022-10-23T13:00:18;138.47;;;87.57;;
17858;SDS011;35426;30.698;104.050;2022-10-23T13:02:58;142.77;;;89.30;;
17858;SDS011;35426;30.698;104.050;2022-10-23T13:05:35;142.13;;;88.33;;
17858;SDS011;35426;30.698;104.050;2022-10-23T13:08:10;145.03;;;90.37;;
17858;SDS011;35426;30.698;104.050;2022-10-23T13:11:14;146.60;;;94.77;;
17858;SDS011;35426;30.698;104.050;2022-10-23T13:13:56;153.03;;;96.80;;
17858;SDS011;35426;30.698;104.050;2022-10-23T13:16:30;151.37;;;97.33;;
17858;SDS011;35426;30.698;104.050;2022-10-23T13:19:20;151.73;;;97.97;;
17858;SDS011;35426;30.698;104.050;2022-10-23T13:21:57;148.00;;;95.67;;
17858;SDS011;35426;30.698;104.050;2022-10-23T13:24:32;153.40;;;98.57;;
17858;SDS011;35426;30.698;104.050;2022-10-23T13:27:23;154.37;;;100.50;;
17858;SDS011;35426;30.698;104.050;2022-10-23T13:30:23;156.03;;;99.80;;
17858;SDS011;35426;30.698;104.050;2022-10-23T13:33:12;158.37;;;102.53;;
17858;SDS011;35426;30.698;104.050;2022-10-23T13:35:56;155.67;;;101.43;;
17858;SDS011;35426;30.698;104.050;2022-10-23T13:38:37;161.47;;;102.27;;
17858;SDS011;35426;30.698;104.050;2022-10-23T13:41:15;160.90;;;103.90;;
17858;SDS011;35426;30.698;104.050;2022-10-23T13:43:51;158.40;;;102.87;;
17858;SDS011;35426;30.698;104.050;2022-10-23T13:46:27;157.53;;;104.30;;
17858;SDS011;35426;30.698;104.050;2022-10-23T13:49:06;159.43;;;107.17;;
17858;SDS011;35426;30.698;104.050;2022-10-23T13:51:45;164.30;;;104.03;;
17858;SDS011;35426;30.698;104.050;2022-10-23T13:54:23;161.27;;;104.37;;
17858;SDS011;35426;30.698;104.050;2022-10-23T13:56:59;164.30;;;108.57;;
17858;SDS011;35426;30.698;104.050;2022-10-23T13:59:35;150.33;;;102.13;;
17858;SDS011;35426;30.698;104.050;2022-10-23T14:02:16;159.07;;;107.17;;
17858;SDS011;35426;30.698;104.050;2022-10-23T14:04:55;160.23;;;105.83;;
17858;SDS011;35426;30.698;104.050;2022-10-23T14:07:30;163.90;;;106.50;;
17858;SDS011;35426;30.698;104.050;2022-10-23T14:10:08;175.67;;;112.07;;
17858;SDS011;35426;30.698;104.050;2022-10-23T14:12:42;165.27;;;108.97;;
17858;SDS011;35426;30.698;104.050;2022-10-23T14:15:24;164.37;;;108.53;;
17858;SDS011;35426;30.698;104.050;2022-10-23T14:18:01;169.10;;;109.73;;
17858;SDS011;35426;30.698;104.050;2022-10-23T14:20:41;180.97;;;114.47;;
17858;SDS011;35426;30.698;104.050;2022-10-23T14:23:16;170.03;;;110.37;;
17858;SDS011;35426;30.698;104.050;2022-10-23T14:25:52;168.10;;;109.90;;
17858;SDS011;35426;30.698;104.050;2022-10-23T14:28:32;159.67;;;109.07;;
17858;SDS011;35426;30.698;104.050;2022-10-23T14:31:09;165.87;;;108.40;;
17858;SDS011;35426;30.698;104.050;2022-10-23T14:33:49;165.40;;;106.67;;
17858;SDS011;35426;30.698;104.050;2022-10-23T14:36:25;136.20;;;85.80;;
17858;SDS011;35426;30.698;104.050;2022-10-23T14:39:17;131.83;;;84.63;;
17858;SDS011;35426;30.698;104.050;2022-10-23T14:41:51;144.63;;;86.40;;
17858;SDS011;35426;30.698;104.050;2022-10-23T14:44:26;136.00;;;84.20;;
17858;SDS011;35426;30.698;104.050;2022-10-23T14:47:05;126.77;;;78.47;;
17858;SDS011;35426;30.698;104.050;2022-10-23T14:49:50;135.07;;;77.17;;
17858;SDS011;35426;30.698;104.050;2022-10-23T14:52:26;134.00;;;79.23;;
17858;SDS011;35426;30.698;104.050;2022-10-23T14:55:00;132.60;;;80.03;;
17858;SDS011;35426;30.698;104.050;2022-10-23T14:57:34;120.83;;;76.30;;
17858;SDS011;35426;30.698;104.050;2022-10-23T15:00:09;138.73;;;78.90;;
17858;SDS011;35426;30.698;104.050;2022-10-23T15:02:45;126.10;;;78.03;;
17858;SDS011;35426;30.698;104.050;2022-10-23T15:05:23;124.67;;;72.67;;
17858;SDS011;35426;30.698;104.050;2022-10-23T15:07:58;132.33;;;74.80;;
17858;SDS011;35426;30.698;104.050;2022-10-23T15:10:33;122.33;;;74.17;;
17858;SDS011;35426;30.698;104.050;2022-10-23T15:13:10;123.40;;;73.30;;
17858;SDS011;35426;30.698;104.050;2022-10-23T15:15:45;129.20;;;72.23;;
17858;SDS011;35426;30.698;104.050;2022-10-23T15:18:20;127.30;;;75.53;;
17858;SDS011;35426;30.698;104.050;2022-10-23T15:20:57;131.53;;;76.30;;